sensor_id;sensor_type;location;lat;lon;timestamp;P1;durP1;ratioP1;P2;durP2;ratioP2
35114;SDS011;21292;52.416;13.046;2023-03-30T00:01:25;8.52;;;6.28;;
35114;SDS011;21292;52.416;13.046;2023-03-30T00:03:53;8.85;;;5.95;;
35114;SDS011;21292;52.416;13.046;2023-03-30T00:06:23;13.07;;;7.07;;
35114;SDS011;21292;52.416;13.046;2023-03-30T00:08:52;11.75;;;6.50;;
35114;SDS011;21292;52.416;13.046;2023-03-30T00:11:24;8.07;;;6.47;;
35114;SDS011;21292;52.416;13.046;2023-03-30T00:13:53;11.02;;;7.13;;
35114;SDS011;21292;52.416;13.046;2023-03-30T00:16:21;9.18;;;6.88;;
35114;SDS011;21292;52.416;13.046;2023-03-30T00:18:49;8.82;;;7.13;;
35114;SDS011;21292;52.416;13.046;2023-03-30T00:21:17;12.48;;;7.10;;
35114;SDS011;21292;52.416;13.046;2023-03-30T00:23:47;10.52;;;7.05;;
35114;SDS011;21292;52.416;13.046;2023-03-30T00:26:17;8.77;;;6.15;;
35114;SDS011;21292;52.416;13.046;2023-03-30T00:28:45;11.15;;;7.10;;
35114;SDS011;21292;52.416;13.046;2023-03-30T00:31:16;14.15;;;6.97;;
35114;SDS011;21292;52.416;13.046;2023-03-30T00:33:44;11.90;;;6.80;;
35114;SDS011;21292;52.416;13.046;2023-03-30T00:36:13;10.95;;;7.13;;
35114;SDS011;21292;52.416;13.046;2023-03-30T00:38:43;11.85;;;7.32;;
35114;SDS011;21292;52.416;13.046;2023-03-30T00:41:13;10.07;;;6.75;;
35114;SDS011;21292;52.416;13.046;2023-03-30T00:43:54;8.65;;;6.45;;
35114;SDS011;21292;52.416;13.046;2023-03-30T00:46:23;10.10;;;7.60;;
35114;SDS011;21292;52.416;13.046;2023-03-30T00:48:52;10.98;;;6.80;;
35114;SDS011;21292;52.416;13.046;2023-03-30T00:51:24;12.32;;;7.72;;
35114;SDS011;21292;52.416;13.046;2023-03-30T00:53:54;9.95;;;7.00;;
35114;SDS011;21292;52.416;13.046;2023-03-30T00:56:26;12.20;;;7.50;;
35114;SDS011;21292;52.416;13.046;2023-03-30T00:58:56;10.52;;;7.18;;
35114;SDS011;21292;52.416;13.046;2023-03-30T01:01:24;10.50;;;7.40;;
35114;SDS011;21292;52.416;13.046;2023-03-30T01:03:54;12.48;;;7.75;;
35114;SDS011;21292;52.416;13.046;2023-03-30T01:06:25;12.88;;;8.05;;
35114;SDS011;21292;52.416;13.046;2023-03-30T01:08:55;10.25;;;7.35;;
35114;SDS011;21292;52.416;13.046;2023-03-30T01:11:26;13.32;;;8.27;;
35114;SDS011;21292;52.416;13.046;2023-03-30T01:13:55;9.85;;;8.05;;
35114;SDS011;21292;52.416;13.046;2023-03-30T01:16:26;10.68;;;7.68;;
35114;SDS011;21292;52.416;13.046;2023-03-30T01:18:59;12.73;;;8.95;;
35114;SDS011;21292;52.416;13.046;2023-03-30T01:21:53;13.15;;;8.20;;
35114;SDS011;21292;52.416;13.046;2023-03-30T01:27:20;15.18;;;8.30;;
35114;SDS011;21292;52.416;13.046;2023-03-30T01:30:21;13.20;;;8.40;;
35114;SDS011;21292;52.416;13.046;2023-03-30T01:33:08;12.15;;;8.88;;
35114;SDS011;21292;52.416;13.046;2023-03-30T01:36:07;10.65;;;8.45;;
35114;SDS011;21292;52.416;13.046;2023-03-30T01:41:41;11.68;;;8.38;;
35114;SDS011;21292;52.416;13.046;2023-03-30T01:44:14;13.93;;;9.00;;
35114;SDS011;21292;52.416;13.046;2023-03-30T01:46:47;12.63;;;9.00;;
35114;SDS011;21292;52.416;13.046;2023-03-30T01:49:21;11.70;;;8.63;;
35114;SDS011;21292;52.416;13.046;2023-03-30T01:51:55;12.32;;;8.73;;
35114;SDS011;21292;52.416;13.046;2023-03-30T01:54:28;13.85;;;9.30;;
35114;SDS011;21292;52.416;13.046;2023-03-30T01:57:01;11.20;;;8.68;;
35114;SDS011;21292;52.416;13.046;2023-03-30T01:59:35;13.98;;;8.23;;
35114;SDS011;21292;52.416;13.046;2023-03-30T02:02:07;12.57;;;8.18;;
35114;SDS011;21292;52.416;13.046;2023-03-30T02:04:37;11.95;;;9.63;;
35114;SDS011;21292;52.416;13.046;2023-03-30T02:07:08;11.35;;;8.63;;
35114;SDS011;21292;52.416;13.046;2023-03-30T02:09:38;10.85;;;8.13;;
35114;SDS011;21292;52.416;13.046;2023-03-30T02:12:09;11.35;;;8.55;;
35114;SDS011;21292;52.416;13.046;2023-03-30T02:14:38;14.02;;;8.63;;
35114;SDS011;21292;52.416;13.046;2023-03-30T02:17:08;12.88;;;9.13;;
35114;SDS011;21292;52.416;13.046;2023-03-30T02:19:42;13.15;;;9.57;;
35114;SDS011;21292;52.416;13.046;2023-03-30T02:22:13;14.13;;;9.07;;
35114;SDS011;21292;52.416;13.046;2023-03-30T02:24:42;13.82;;;9.05;;
35114;SDS011;21292;52.416;13.046;2023-03-30T02:27:12;15.05;;;9.70;;
35114;SDS011;21292;52.416;13.046;2023-03-30T02:29:42;11.70;;;8.20;;
35114;SDS011;21292;52.416;13.046;2023-03-30T02:32:14;16.30;;;9.23;;
35114;SDS011;21292;52.416;13.046;2023-03-30T02:34:49;13.13;;;9.32;;
35114;SDS011;21292;52.416;13.046;2023-03-30T02:37:32;15.43;;;10.00;;
35114;SDS011;21292;52.416;13.046;2023-03-30T02:40:10;12.75;;;8.82;;
35114;SDS011;21292;52.416;13.046;2023-03-30T02:42:54;13.80;;;9.48;;
35114;SDS011;21292;52.416;13.046;2023-03-30T02:45:33;12.43;;;10.00;;
35114;SDS011;21292;52.416;13.046;2023-03-30T02:48:12;12.13;;;8.93;;
35114;SDS011;21292;52.416;13.046;2023-03-30T02:50:46;13.88;;;9.10;;
35114;SDS011;21292;52.416;13.046;2023-03-30T02:53:21;14.25;;;9.25;;
35114;SDS011;21292;52.416;13.046;2023-03-30T02:55:55;11.38;;;8.40;;
35114;SDS011;21292;52.416;13.046;2023-03-30T02:58:34;11.55;;;8.68;;
35114;SDS011;21292;52.416;13.046;2023-03-30T03:01:07;11.82;;;8.52;;
35114;SDS011;21292;52.416;13.046;2023-03-30T03:03:38;13.90;;;7.88;;
35114;SDS011;21292;52.416;13.046;2023-03-30T03:06:09;10.90;;;8.07;;
35114;SDS011;21292;52.416;13.046;2023-03-30T03:08:40;12.30;;;8.85;;
35114;SDS011;21292;52.416;13.046;2023-03-30T03:11:10;12.57;;;9.27;;
35114;SDS011;21292;52.416;13.046;2023-03-30T03:13:39;16.25;;;8.50;;
35114;SDS011;21292;52.416;13.046;2023-03-30T03:16:08;13.77;;;9.52;;
35114;SDS011;21292;52.416;13.046;2023-03-30T03:18:38;14.48;;;8.50;;
35114;SDS011;21292;52.416;13.046;2023-03-30T03:21:07;12.48;;;8.25;;
35114;SDS011;21292;52.416;13.046;2023-03-30T03:23:36;12.40;;;8.80;;
35114;SDS011;21292;52.416;13.046;2023-03-30T03:26:04;12.75;;;8.52;;
35114;SDS011;21292;52.416;13.046;2023-03-30T03:28:33;13.43;;;7.85;;
35114;SDS011;21292;52.416;13.046;2023-03-30T03:31:03;12.63;;;8.02;;
35114;SDS011;21292;52.416;13.046;2023-03-30T03:33:32;14.73;;;9.13;;
35114;SDS011;21292;52.416;13.046;2023-03-30T03:36:01;12.30;;;8.00;;
35114;SDS011;21292;52.416;13.046;2023-03-30T03:38:29;12.65;;;8.07;;
35114;SDS011;21292;52.416;13.046;2023-03-30T03:40:58;15.52;;;8.55;;
35114;SDS011;21292;52.416;13.046;2023-03-30T03:43:26;13.38;;;8.88;;
35114;SDS011;21292;52.416;13.046;2023-03-30T03:45:54;12.02;;;8.43;;
35114;SDS011;21292;52.416;13.046;2023-03-30T03:48:26;12.05;;;8.93;;
35114;SDS011;21292;52.416;13.046;2023-03-30T03:50:54;12.40;;;8.55;;
35114;SDS011;21292;52.416;13.046;2023-03-30T03:53:24;12.60;;;8.50;;
35114;SDS011;21292;52.416;13.046;2023-03-30T03:55:53;14.50;;;8.48;;
35114;SDS011;21292;52.416;13.046;2023-03-30T03:58:22;11.55;;;8.80;;
35114;SDS011;21292;52.416;13.046;2023-03-30T04:00:56;15.57;;;8.32;;
35114;SDS011;21292;52.416;13.046;2023-03-30T04:03:27;13.00;;;9.35;;
35114;SDS011;21292;52.416;13.046;2023-03-30T04:05:59;12.27;;;8.75;;
35114;SDS011;21292;52.416;13.046;2023-03-30T04:08:28;17.75;;;8.90;;
35114;SDS011;21292;52.416;13.046;2023-03-30T04:11:03;14.65;;;8.40;;
35114;SDS011;21292;52.416;13.046;2023-03-30T04:13:33;11.20;;;8.50;;
35114;SDS011;21292;52.416;13.046;2023-03-30T04:16:01;13.38;;;8.73;;
35114;SDS011;21292;52.416;13.046;2023-03-30T04:18:31;11.73;;;8.65;;
35114;SDS011;21292;52.416;13.046;2023-03-30T04:21:00;11.82;;;8.57;;
35114;SDS011;21292;52.416;13.046;2023-03-30T04:23:32;13.65;;;8.05;;
35114;SDS011;21292;52.416;13.046;2023-03-30T04:26:02;12.35;;;7.78;;
35114;SDS011;21292;52.416;13.046;2023-03-30T04:28:32;13.32;;;8.02;;
35114;SDS011;21292;52.416;13.046;2023-03-30T04:31:01;11.02;;;8.15;;
35114;SDS011;21292;52.416;13.046;2023-03-30T04:33:32;11.07;;;8.00;;
35114;SDS011;21292;52.416;13.046;2023-03-30T04:36:04;15.13;;;7.63;;
35114;SDS011;21292;52.416;13.046;2023-03-30T04:38:32;12.38;;;7.47;;
35114;SDS011;21292;52.416;13.046;2023-03-30T04:41:02;13.45;;;7.70;;
35114;SDS011;21292;52.416;13.046;2023-03-30T04:43:31;12.77;;;6.80;;
35114;SDS011;21292;52.416;13.046;2023-03-30T04:45:59;16.48;;;7.75;;
35114;SDS011;21292;52.416;13.046;2023-03-30T04:48:28;9.20;;;6.97;;
35114;SDS011;21292;52.416;13.046;2023-03-30T04:50:58;9.55;;;6.82;;
35114;SDS011;21292;52.416;13.046;2023-03-30T04:53:26;10.15;;;7.00;;
35114;SDS011;21292;52.416;13.046;2023-03-30T04:55:54;10.10;;;7.50;;
35114;SDS011;21292;52.416;13.046;2023-03-30T04:58:22;9.65;;;7.00;;
35114;SDS011;21292;52.416;13.046;2023-03-30T05:00:51;8.95;;;7.18;;
35114;SDS011;21292;52.416;13.046;2023-03-30T05:03:19;11.23;;;7.63;;
35114;SDS011;21292;52.416;13.046;2023-03-30T05:05:49;12.57;;;7.97;;
35114;SDS011;21292;52.416;13.046;2023-03-30T05:08:19;9.73;;;7.38;;
35114;SDS011;21292;52.416;13.046;2023-03-30T05:10:48;11.73;;;7.38;;
35114;SDS011;21292;52.416;13.046;2023-03-30T05:13:16;7.75;;;6.22;;
35114;SDS011;21292;52.416;13.046;2023-03-30T05:15:44;10.85;;;6.32;;
35114;SDS011;21292;52.416;13.046;2023-03-30T05:18:12;9.98;;;6.85;;
35114;SDS011;21292;52.416;13.046;2023-03-30T05:20:40;11.45;;;7.15;;
35114;SDS011;21292;52.416;13.046;2023-03-30T05:23:08;21.02;;;7.30;;
35114;SDS011;21292;52.416;13.046;2023-03-30T05:25:38;10.57;;;6.75;;
35114;SDS011;21292;52.416;13.046;2023-03-30T05:28:09;13.15;;;6.75;;
35114;SDS011;21292;52.416;13.046;2023-03-30T05:30:38;16.30;;;6.97;;
35114;SDS011;21292;52.416;13.046;2023-03-30T05:33:06;12.00;;;5.97;;
35114;SDS011;21292;52.416;13.046;2023-03-30T05:35:36;18.40;;;7.55;;
35114;SDS011;21292;52.416;13.046;2023-03-30T05:38:04;18.50;;;7.65;;
35114;SDS011;21292;52.416;13.046;2023-03-30T05:40:33;14.88;;;7.00;;
35114;SDS011;21292;52.416;13.046;2023-03-30T05:43:03;12.00;;;6.70;;
35114;SDS011;21292;52.416;13.046;2023-03-30T05:45:31;11.93;;;6.68;;
35114;SDS011;21292;52.416;13.046;2023-03-30T05:47:59;12.10;;;6.07;;
35114;SDS011;21292;52.416;13.046;2023-03-30T05:50:27;10.75;;;6.13;;
35114;SDS011;21292;52.416;13.046;2023-03-30T05:52:56;13.23;;;7.07;;
35114;SDS011;21292;52.416;13.046;2023-03-30T05:55:27;10.10;;;6.10;;
35114;SDS011;21292;52.416;13.046;2023-03-30T05:57:56;9.13;;;6.40;;
35114;SDS011;21292;52.416;13.046;2023-03-30T06:00:25;12.40;;;7.22;;
35114;SDS011;21292;52.416;13.046;2023-03-30T06:02:55;8.82;;;5.35;;
35114;SDS011;21292;52.416;13.046;2023-03-30T06:05:23;9.30;;;5.97;;
35114;SDS011;21292;52.416;13.046;2023-03-30T06:07:51;9.90;;;6.50;;
35114;SDS011;21292;52.416;13.046;2023-03-30T06:10:20;9.18;;;6.43;;
35114;SDS011;21292;52.416;13.046;2023-03-30T06:12:49;8.13;;;6.32;;
35114;SDS011;21292;52.416;13.046;2023-03-30T06:15:17;12.10;;;6.72;;
35114;SDS011;21292;52.416;13.046;2023-03-30T06:17:46;12.00;;;6.88;;
35114;SDS011;21292;52.416;13.046;2023-03-30T06:20:14;13.50;;;7.18;;
35114;SDS011;21292;52.416;13.046;2023-03-30T06:22:43;9.40;;;6.28;;
35114;SDS011;21292;52.416;13.046;2023-03-30T06:25:11;9.07;;;5.78;;
35114;SDS011;21292;52.416;13.046;2023-03-30T06:27:46;7.90;;;5.45;;
35114;SDS011;21292;52.416;13.046;2023-03-30T06:30:15;7.43;;;5.60;;
35114;SDS011;21292;52.416;13.046;2023-03-30T06:32:43;8.02;;;5.38;;
35114;SDS011;21292;52.416;13.046;2023-03-30T06:35:13;10.00;;;5.90;;
35114;SDS011;21292;52.416;13.046;2023-03-30T06:37:42;8.18;;;5.05;;
35114;SDS011;21292;52.416;13.046;2023-03-30T06:40:13;9.48;;;5.60;;
35114;SDS011;21292;52.416;13.046;2023-03-30T06:42:44;7.53;;;5.13;;
35114;SDS011;21292;52.416;13.046;2023-03-30T06:45:13;10.93;;;5.43;;
35114;SDS011;21292;52.416;13.046;2023-03-30T06:47:42;8.85;;;5.28;;
35114;SDS011;21292;52.416;13.046;2023-03-30T06:50:10;11.77;;;6.00;;
35114;SDS011;21292;52.416;13.046;2023-03-30T06:52:40;10.65;;;5.18;;
35114;SDS011;21292;52.416;13.046;2023-03-30T06:55:11;8.18;;;4.95;;
35114;SDS011;21292;52.416;13.046;2023-03-30T06:57:40;11.52;;;5.68;;
35114;SDS011;21292;52.416;13.046;2023-03-30T07:00:09;10.00;;;4.50;;
35114;SDS011;21292;52.416;13.046;2023-03-30T07:02:41;6.75;;;4.47;;
35114;SDS011;21292;52.416;13.046;2023-03-30T07:05:09;11.13;;;5.32;;
35114;SDS011;21292;52.416;13.046;2023-03-30T07:07:52;12.73;;;5.40;;
35114;SDS011;21292;52.416;13.046;2023-03-30T07:10:21;6.93;;;4.80;;
35114;SDS011;21292;52.416;13.046;2023-03-30T07:12:50;10.18;;;5.07;;
35114;SDS011;21292;52.416;13.046;2023-03-30T07:15:19;7.97;;;4.75;;
35114;SDS011;21292;52.416;13.046;2023-03-30T07:17:47;7.80;;;4.90;;
35114;SDS011;21292;52.416;13.046;2023-03-30T07:20:19;8.23;;;4.57;;
35114;SDS011;21292;52.416;13.046;2023-03-30T07:22:47;7.53;;;4.10;;
35114;SDS011;21292;52.416;13.046;2023-03-30T07:25:17;5.43;;;3.42;;
35114;SDS011;21292;52.416;13.046;2023-03-30T07:27:45;6.20;;;4.00;;
35114;SDS011;21292;52.416;13.046;2023-03-30T07:30:13;7.55;;;3.95;;
35114;SDS011;21292;52.416;13.046;2023-03-30T07:32:48;6.38;;;3.83;;
35114;SDS011;21292;52.416;13.046;2023-03-30T07:35:17;6.13;;;4.07;;
35114;SDS011;21292;52.416;13.046;2023-03-30T07:37:46;6.80;;;3.70;;
35114;SDS011;21292;52.416;13.046;2023-03-30T07:40:18;7.85;;;4.07;;
35114;SDS011;21292;52.416;13.046;2023-03-30T07:42:48;9.10;;;4.07;;
35114;SDS011;21292;52.416;13.046;2023-03-30T07:45:16;6.13;;;3.38;;
35114;SDS011;21292;52.416;13.046;2023-03-30T07:47:45;10.98;;;3.85;;
35114;SDS011;21292;52.416;13.046;2023-03-30T07:50:14;8.27;;;3.92;;
35114;SDS011;21292;52.416;13.046;2023-03-30T07:52:42;7.15;;;3.15;;
35114;SDS011;21292;52.416;13.046;2023-03-30T07:55:10;11.02;;;3.50;;
35114;SDS011;21292;52.416;13.046;2023-03-30T07:57:42;5.70;;;3.35;;
35114;SDS011;21292;52.416;13.046;2023-03-30T08:00:11;7.80;;;3.17;;
35114;SDS011;21292;52.416;13.046;2023-03-30T08:02:42;9.52;;;3.53;;
35114;SDS011;21292;52.416;13.046;2023-03-30T08:05:10;8.50;;;3.38;;
35114;SDS011;21292;52.416;13.046;2023-03-30T08:07:44;10.43;;;3.05;;
35114;SDS011;21292;52.416;13.046;2023-03-30T08:10:15;4.95;;;2.88;;
35114;SDS011;21292;52.416;13.046;2023-03-30T08:12:45;8.07;;;3.28;;
35114;SDS011;21292;52.416;13.046;2023-03-30T08:15:13;7.85;;;3.00;;
35114;SDS011;21292;52.416;13.046;2023-03-30T08:17:41;3.67;;;2.53;;
35114;SDS011;21292;52.416;13.046;2023-03-30T08:20:10;6.72;;;3.13;;
35114;SDS011;21292;52.416;13.046;2023-03-30T08:22:39;7.32;;;2.83;;
35114;SDS011;21292;52.416;13.046;2023-03-30T08:25:07;9.40;;;3.13;;
35114;SDS011;21292;52.416;13.046;2023-03-30T08:27:36;7.82;;;2.63;;
35114;SDS011;21292;52.416;13.046;2023-03-30T08:30:06;5.28;;;2.75;;
35114;SDS011;21292;52.416;13.046;2023-03-30T08:35:05;10.32;;;3.05;;
35114;SDS011;21292;52.416;13.046;2023-03-30T08:37:34;12.55;;;2.75;;
35114;SDS011;21292;52.416;13.046;2023-03-30T08:40:03;8.70;;;2.72;;
35114;SDS011;21292;52.416;13.046;2023-03-30T08:42:40;6.43;;;2.80;;
35114;SDS011;21292;52.416;13.046;2023-03-30T08:45:15;8.07;;;3.20;;
35114;SDS011;21292;52.416;13.046;2023-03-30T08:47:45;5.85;;;2.72;;
35114;SDS011;21292;52.416;13.046;2023-03-30T08:50:19;5.88;;;2.08;;
35114;SDS011;21292;52.416;13.046;2023-03-30T08:52:53;8.93;;;3.03;;
35114;SDS011;21292;52.416;13.046;2023-03-30T08:55:22;8.77;;;2.80;;
35114;SDS011;21292;52.416;13.046;2023-03-30T08:57:54;5.75;;;2.78;;
35114;SDS011;21292;52.416;13.046;2023-03-30T09:00:28;6.28;;;2.65;;
35114;SDS011;21292;52.416;13.046;2023-03-30T09:03:03;6.13;;;3.10;;
35114;SDS011;21292;52.416;13.046;2023-03-30T09:05:37;6.88;;;2.65;;
35114;SDS011;21292;52.416;13.046;2023-03-30T09:08:13;8.18;;;2.60;;
35114;SDS011;21292;52.416;13.046;2023-03-30T09:10:48;4.13;;;2.40;;
35114;SDS011;21292;52.416;13.046;2023-03-30T09:13:19;7.35;;;2.67;;
35114;SDS011;21292;52.416;13.046;2023-03-30T09:15:52;7.70;;;2.80;;
35114;SDS011;21292;52.416;13.046;2023-03-30T09:20:53;7.32;;;3.05;;
35114;SDS011;21292;52.416;13.046;2023-03-30T09:23:22;8.13;;;2.75;;
35114;SDS011;21292;52.416;13.046;2023-03-30T09:25:53;11.25;;;3.05;;
35114;SDS011;21292;52.416;13.046;2023-03-30T09:28:30;9.55;;;2.80;;
35114;SDS011;21292;52.416;13.046;2023-03-30T09:31:06;7.97;;;3.00;;
35114;SDS011;21292;52.416;13.046;2023-03-30T09:33:38;12.13;;;2.70;;
35114;SDS011;21292;52.416;13.046;2023-03-30T09:36:11;2.90;;;1.95;;
35114;SDS011;21292;52.416;13.046;2023-03-30T09:38:42;4.90;;;2.63;;
35114;SDS011;21292;52.416;13.046;2023-03-30T09:41:23;9.38;;;3.08;;
35114;SDS011;21292;52.416;13.046;2023-03-30T09:43:58;11.40;;;3.35;;
35114;SDS011;21292;52.416;13.046;2023-03-30T09:46:28;8.10;;;2.70;;
35114;SDS011;21292;52.416;13.046;2023-03-30T09:49:12;7.80;;;2.65;;
35114;SDS011;21292;52.416;13.046;2023-03-30T09:51:53;10.90;;;3.75;;
35114;SDS011;21292;52.416;13.046;2023-03-30T09:54:23;7.88;;;2.38;;
35114;SDS011;21292;52.416;13.046;2023-03-30T09:56:53;8.32;;;2.75;;
35114;SDS011;21292;52.416;13.046;2023-03-30T09:59:30;7.90;;;2.35;;
35114;SDS011;21292;52.416;13.046;2023-03-30T10:02:14;7.60;;;2.60;;
35114;SDS011;21292;52.416;13.046;2023-03-30T10:04:53;8.13;;;2.55;;
35114;SDS011;21292;52.416;13.046;2023-03-30T10:07:23;6.78;;;2.60;;
35114;SDS011;21292;52.416;13.046;2023-03-30T10:09:54;6.75;;;2.50;;
35114;SDS011;21292;52.416;13.046;2023-03-30T10:12:23;7.05;;;2.80;;
35114;SDS011;21292;52.416;13.046;2023-03-30T10:14:52;9.57;;;2.70;;
35114;SDS011;21292;52.416;13.046;2023-03-30T10:17:23;7.43;;;2.63;;
35114;SDS011;21292;52.416;13.046;2023-03-30T10:19:52;8.35;;;2.50;;
35114;SDS011;21292;52.416;13.046;2023-03-30T10:22:46;8.13;;;2.90;;
35114;SDS011;21292;52.416;13.046;2023-03-30T10:25:18;11.10;;;2.90;;
35114;SDS011;21292;52.416;13.046;2023-03-30T10:27:50;4.88;;;2.40;;
35114;SDS011;21292;52.416;13.046;2023-03-30T10:30:22;4.75;;;2.50;;
35114;SDS011;21292;52.416;13.046;2023-03-30T10:32:59;12.60;;;2.70;;
35114;SDS011;21292;52.416;13.046;2023-03-30T10:35:31;8.35;;;2.55;;
35114;SDS011;21292;52.416;13.046;2023-03-30T10:38:02;6.97;;;2.63;;
35114;SDS011;21292;52.416;13.046;2023-03-30T10:40:31;6.97;;;2.92;;
35114;SDS011;21292;52.416;13.046;2023-03-30T10:43:02;10.97;;;2.60;;
35114;SDS011;21292;52.416;13.046;2023-03-30T10:45:33;9.23;;;3.10;;
35114;SDS011;21292;52.416;13.046;2023-03-30T10:48:19;8.50;;;3.20;;
35114;SDS011;21292;52.416;13.046;2023-03-30T10:50:54;5.50;;;2.58;;
35114;SDS011;21292;52.416;13.046;2023-03-30T10:53:32;9.60;;;2.60;;
35114;SDS011;21292;52.416;13.046;2023-03-30T10:56:06;9.57;;;2.95;;
35114;SDS011;21292;52.416;13.046;2023-03-30T10:58:43;8.20;;;3.03;;
35114;SDS011;21292;52.416;13.046;2023-03-30T11:01:20;8.50;;;3.33;;
35114;SDS011;21292;52.416;13.046;2023-03-30T11:03:55;8.50;;;3.50;;
35114;SDS011;21292;52.416;13.046;2023-03-30T11:06:38;8.65;;;3.30;;
35114;SDS011;21292;52.416;13.046;2023-03-30T11:09:09;12.50;;;3.00;;
35114;SDS011;21292;52.416;13.046;2023-03-30T11:14:13;12.02;;;3.40;;
35114;SDS011;21292;52.416;13.046;2023-03-30T11:16:46;9.98;;;3.75;;
35114;SDS011;21292;52.416;13.046;2023-03-30T11:19:21;5.68;;;2.33;;
35114;SDS011;21292;52.416;13.046;2023-03-30T11:21:54;6.82;;;3.65;;
35114;SDS011;21292;52.416;13.046;2023-03-30T11:24:27;6.47;;;3.03;;
35114;SDS011;21292;52.416;13.046;2023-03-30T11:26:58;11.40;;;2.88;;
35114;SDS011;21292;52.416;13.046;2023-03-30T11:29:30;8.68;;;2.65;;
35114;SDS011;21292;52.416;13.046;2023-03-30T11:32:07;9.80;;;3.17;;
35114;SDS011;21292;52.416;13.046;2023-03-30T11:34:47;11.13;;;3.30;;
35114;SDS011;21292;52.416;13.046;2023-03-30T11:37:20;10.13;;;3.22;;
35114;SDS011;21292;52.416;13.046;2023-03-30T11:39:54;11.80;;;3.30;;
35114;SDS011;21292;52.416;13.046;2023-03-30T11:42:24;7.20;;;3.15;;
35114;SDS011;21292;52.416;13.046;2023-03-30T11:44:55;10.02;;;2.95;;
35114;SDS011;21292;52.416;13.046;2023-03-30T11:47:28;6.05;;;3.05;;
35114;SDS011;21292;52.416;13.046;2023-03-30T11:50:08;9.73;;;3.25;;
35114;SDS011;21292;52.416;13.046;2023-03-30T11:52:41;11.30;;;2.92;;
35114;SDS011;21292;52.416;13.046;2023-03-30T11:55:17;10.63;;;3.17;;
35114;SDS011;21292;52.416;13.046;2023-03-30T11:57:51;9.38;;;2.72;;
35114;SDS011;21292;52.416;13.046;2023-03-30T12:00:35;6.13;;;2.53;;
35114;SDS011;21292;52.416;13.046;2023-03-30T12:03:13;11.55;;;3.30;;
35114;SDS011;21292;52.416;13.046;2023-03-30T12:05:49;6.60;;;2.97;;
35114;SDS011;21292;52.416;13.046;2023-03-30T12:08:30;10.35;;;3.17;;
35114;SDS011;21292;52.416;13.046;2023-03-30T12:11:11;8.02;;;2.55;;
35114;SDS011;21292;52.416;13.046;2023-03-30T12:13:42;6.80;;;2.35;;
35114;SDS011;21292;52.416;13.046;2023-03-30T12:16:18;9.77;;;3.30;;
35114;SDS011;21292;52.416;13.046;2023-03-30T12:18:56;6.95;;;3.33;;
35114;SDS011;21292;52.416;13.046;2023-03-30T12:21:32;8.95;;;2.92;;
35114;SDS011;21292;52.416;13.046;2023-03-30T12:24:04;9.25;;;2.90;;
35114;SDS011;21292;52.416;13.046;2023-03-30T12:26:36;7.20;;;2.75;;
35114;SDS011;21292;52.416;13.046;2023-03-30T12:29:09;13.27;;;3.15;;
35114;SDS011;21292;52.416;13.046;2023-03-30T12:32:03;10.20;;;2.70;;
35114;SDS011;21292;52.416;13.046;2023-03-30T12:34:34;11.60;;;2.55;;
35114;SDS011;21292;52.416;13.046;2023-03-30T12:37:06;5.85;;;3.08;;
35114;SDS011;21292;52.416;13.046;2023-03-30T12:39:42;9.73;;;2.97;;
35114;SDS011;21292;52.416;13.046;2023-03-30T12:42:18;5.93;;;2.60;;
35114;SDS011;21292;52.416;13.046;2023-03-30T12:44:58;12.90;;;3.03;;
35114;SDS011;21292;52.416;13.046;2023-03-30T12:47:37;9.60;;;2.90;;
35114;SDS011;21292;52.416;13.046;2023-03-30T12:50:26;9.40;;;2.80;;
35114;SDS011;21292;52.416;13.046;2023-03-30T12:53:09;11.25;;;2.88;;
35114;SDS011;21292;52.416;13.046;2023-03-30T12:55:49;9.13;;;3.10;;
35114;SDS011;21292;52.416;13.046;2023-03-30T12:58:25;6.70;;;2.65;;
35114;SDS011;21292;52.416;13.046;2023-03-30T13:01:17;15.30;;;3.42;;
35114;SDS011;21292;52.416;13.046;2023-03-30T13:03:51;4.95;;;2.85;;
35114;SDS011;21292;52.416;13.046;2023-03-30T13:06:23;10.70;;;3.45;;
35114;SDS011;21292;52.416;13.046;2023-03-30T13:09:01;9.57;;;3.20;;
35114;SDS011;21292;52.416;13.046;2023-03-30T13:11:41;9.55;;;3.35;;
35114;SDS011;21292;52.416;13.046;2023-03-30T13:14:14;7.50;;;3.30;;
35114;SDS011;21292;52.416;13.046;2023-03-30T13:16:47;10.73;;;3.63;;
35114;SDS011;21292;52.416;13.046;2023-03-30T13:19:41;10.32;;;3.35;;
35114;SDS011;21292;52.416;13.046;2023-03-30T13:22:18;10.07;;;3.95;;
35114;SDS011;21292;52.416;13.046;2023-03-30T13:24:53;6.85;;;2.95;;
35114;SDS011;21292;52.416;13.046;2023-03-30T13:27:26;7.10;;;3.35;;
35114;SDS011;21292;52.416;13.046;2023-03-30T13:29:57;7.60;;;3.25;;
35114;SDS011;21292;52.416;13.046;2023-03-30T13:32:34;8.20;;;2.92;;
35114;SDS011;21292;52.416;13.046;2023-03-30T13:35:21;11.50;;;2.58;;
35114;SDS011;21292;52.416;13.046;2023-03-30T13:41:06;8.00;;;2.28;;
35114;SDS011;21292;52.416;13.046;2023-03-30T13:43:44;5.35;;;2.50;;
35114;SDS011;21292;52.416;13.046;2023-03-30T13:46:25;5.75;;;2.20;;
35114;SDS011;21292;52.416;13.046;2023-03-30T13:48:59;4.75;;;2.10;;
35114;SDS011;21292;52.416;13.046;2023-03-30T13:51:34;9.02;;;2.72;;
35114;SDS011;21292;52.416;13.046;2023-03-30T13:54:05;5.38;;;2.20;;
35114;SDS011;21292;52.416;13.046;2023-03-30T13:56:38;4.70;;;1.70;;
35114;SDS011;21292;52.416;13.046;2023-03-30T13:59:10;3.50;;;1.80;;
35114;SDS011;21292;52.416;13.046;2023-03-30T14:01:40;5.13;;;1.92;;
35114;SDS011;21292;52.416;13.046;2023-03-30T14:04:13;7.20;;;2.03;;
35114;SDS011;21292;52.416;13.046;2023-03-30T14:06:43;6.60;;;1.90;;
35114;SDS011;21292;52.416;13.046;2023-03-30T14:09:13;4.43;;;1.85;;
35114;SDS011;21292;52.416;13.046;2023-03-30T14:11:49;6.03;;;1.77;;
35114;SDS011;21292;52.416;13.046;2023-03-30T14:14:19;5.00;;;2.23;;
35114;SDS011;21292;52.416;13.046;2023-03-30T14:16:50;4.82;;;2.38;;
35114;SDS011;21292;52.416;13.046;2023-03-30T14:19:20;6.65;;;2.20;;
35114;SDS011;21292;52.416;13.046;2023-03-30T14:21:50;6.80;;;2.20;;
35114;SDS011;21292;52.416;13.046;2023-03-30T14:24:26;6.47;;;2.20;;
35114;SDS011;21292;52.416;13.046;2023-03-30T14:27:04;6.53;;;2.70;;
35114;SDS011;21292;52.416;13.046;2023-03-30T14:29:34;7.28;;;2.58;;
35114;SDS011;21292;52.416;13.046;2023-03-30T14:32:14;9.80;;;3.03;;
35114;SDS011;21292;52.416;13.046;2023-03-30T14:34:45;6.70;;;3.75;;
35114;SDS011;21292;52.416;13.046;2023-03-30T14:37:15;7.78;;;2.97;;
35114;SDS011;21292;52.416;13.046;2023-03-30T14:39:49;12.75;;;2.80;;
35114;SDS011;21292;52.416;13.046;2023-03-30T14:42:21;8.20;;;3.20;;
35114;SDS011;21292;52.416;13.046;2023-03-30T14:44:52;5.47;;;2.55;;
35114;SDS011;21292;52.416;13.046;2023-03-30T14:47:22;8.25;;;2.90;;
35114;SDS011;21292;52.416;13.046;2023-03-30T14:49:52;8.07;;;3.15;;
35114;SDS011;21292;52.416;13.046;2023-03-30T14:52:22;6.93;;;2.85;;
35114;SDS011;21292;52.416;13.046;2023-03-30T14:54:53;10.38;;;2.78;;
35114;SDS011;21292;52.416;13.046;2023-03-30T14:57:35;5.95;;;2.47;;
35114;SDS011;21292;52.416;13.046;2023-03-30T15:00:05;5.15;;;2.90;;
35114;SDS011;21292;52.416;13.046;2023-03-30T15:02:46;5.97;;;2.67;;
35114;SDS011;21292;52.416;13.046;2023-03-30T15:05:17;10.80;;;3.15;;
35114;SDS011;21292;52.416;13.046;2023-03-30T15:07:48;6.22;;;2.72;;
35114;SDS011;21292;52.416;13.046;2023-03-30T15:10:21;7.72;;;2.83;;
35114;SDS011;21292;52.416;13.046;2023-03-30T15:12:55;8.30;;;2.50;;
35114;SDS011;21292;52.416;13.046;2023-03-30T15:15:25;8.30;;;3.13;;